Time,TemperatureF,DewpointF,PressureIn,WindDirection,WindDirectionDegrees,WindSpeedMPH,WindSpeedGustMPH,Humidity,HourlyPrecipIn,Conditions,Clouds,dailyrainin,SoftwareType,DateUTC
2013-04-27 00:03:00,32.0,-99.9,30.38,WSW,247,0.0,4.0,0,-99.99,,,0.00,,2013-04-27 04:03:00,
2013-04-27 01:42:00,28.0,-99.9,30.38,SW,225,0.0,2.0,0,-99.99,,,0.00,,2013-04-27 05:42:00,
2013-04-27 01:52:00,28.0,-99.9,30.38,SW,225,0.0,2.0,0,-99.99,,,0.00,,2013-04-27 05:52:00,
2013-04-27 02:02:00,28.0,-99.9,30.38,SW,225,0.0,2.0,0,-99.99,,,0.00,,2013-04-27 06:02:00,
2013-04-27 03:42:00,26.0,-99.9,30.38,SW,225,0.0,0.0,0,-99.99,,,0.00,,2013-04-27 07:42:00,
2013-04-27 03:52:00,26.0,-99.9,30.38,SW,225,0.0,0.0,0,-99.99,,,0.00,,2013-04-27 07:52:00,
2013-04-27 04:02:00,26.0,-99.9,30.38,SW,225,0.0,0.0,0,-99.99,,,0.00,,2013-04-27 08:02:00,
2013-04-27 04:42:00,25.0,-99.9,30.38,SSW,202,0.0,2.0,0,-99.99,,,0.00,,2013-04-27 08:42:00,
2013-04-27 04:52:00,25.0,-99.9,30.38,SSW,202,0.0,2.0,0,-99.99,,,0.00,,2013-04-27 08:52:00,
2013-04-27 05:01:00,25.0,-99.9,30.38,SSW,202,0.0,2.0,0,-99.99,,,0.00,,2013-04-27 09:01:00,
2013-04-27 05:43:00,24.0,-99.9,30.37,SSW,202,0.0,0.0,0,-99.99,,,0.00,,2013-04-27 09:43:00,
2013-04-27 05:53:00,24.0,-99.9,30.37,SSW,202,0.0,0.0,0,-99.99,,,0.00,,2013-04-27 09:53:00,
2013-04-27 06:03:00,24.0,-99.9,30.37,SSW,202,0.0,0.0,0,-99.99,,,0.00,,2013-04-27 10:03:00,
2013-04-27 06:42:00,23.0,-99.9,30.37,SW,225,0.0,4.0,0,-99.99,,,0.00,,2013-04-27 10:42:00,
2013-04-27 06:53:00,23.0,-99.9,30.37,SW,225,0.0,4.0,0,-99.99,,,0.00,,2013-04-27 10:53:00,
2013-04-27 07:03:00,23.0,-99.9,30.37,SW,225,0.0,4.0,0,-99.99,,,0.00,,2013-04-27 11:03:00,
2013-04-27 07:42:00,26.0,-99.9,30.38,SW,225,0.0,4.0,0,-99.99,,,0.00,,2013-04-27 11:42:00,
2013-04-27 07:52:00,26.0,-99.9,30.38,SW,225,0.0,4.0,0,-99.99,,,0.00,,2013-04-27 11:52:00,
2013-04-27 08:02:00,26.0,-99.9,30.38,SW,225,0.0,4.0,0,-99.99,,,0.00,,2013-04-27 12:02:00,
2013-04-27 08:42:00,33.0,-99.9,30.37,North,360,2.0,4.0,0,-99.99,,,0.00,,2013-04-27 12:42:00,
2013-04-27 08:52:00,33.0,-99.9,30.37,North,360,2.0,4.0,0,-99.99,,,0.00,,2013-04-27 12:52:00,
2013-04-27 09:02:00,33.0,-99.9,30.37,North,360,2.0,4.0,0,-99.99,,,0.00,,2013-04-27 13:02:00,
2013-04-27 09:42:00,44.0,-99.9,30.35,NW,315,4.0,5.0,0,-99.99,,,0.00,,2013-04-27 13:42:00,
2013-04-27 09:52:00,44.0,-99.9,30.35,NW,315,4.0,5.0,0,-99.99,,,0.00,,2013-04-27 13:52:00,
2013-04-27 10:02:00,44.0,-99.9,30.35,NW,315,4.0,5.0,0,-99.99,,,0.00,,2013-04-27 14:02:00,
2013-04-27 10:42:00,50.0,-99.9,30.33,WNW,292,5.0,7.0,0,-99.99,,,0.00,,2013-04-27 14:42:00,
2013-04-27 10:52:00,50.0,-99.9,30.33,WNW,292,5.0,7.0,0,-99.99,,,0.00,,2013-04-27 14:52:00,
2013-04-27 11:02:00,50.0,-99.9,30.33,WNW,292,5.0,7.0,0,-99.99,,,0.00,,2013-04-27 15:02:00,
2013-04-27 11:43:00,53.0,-99.9,30.32,WNW,292,5.0,9.0,0,-99.99,,,0.00,,2013-04-27 15:43:00,
2013-04-27 11:53:00,53.0,-99.9,30.32,WNW,292,5.0,9.0,0,-99.99,,,0.00,,2013-04-27 15:53:00,
2013-04-27 12:03:00,53.0,-99.9,30.32,WNW,292,5.0,9.0,0,-99.99,,,0.00,,2013-04-27 16:03:00,
2013-04-27 12:42:00,58.0,-99.9,30.30,North,360,5.0,10.0,0,-99.99,,,0.00,,2013-04-27 16:42:00,
2013-04-27 12:53:00,58.0,-99.9,30.30,North,360,5.0,10.0,0,-99.99,,,0.00,,2013-04-27 16:53:00,
2013-04-27 13:02:00,58.0,-99.9,30.30,North,360,5.0,10.0,0,-99.99,,,0.00,,2013-04-27 17:02:00,
2013-04-27 13:42:00,58.0,-99.9,30.27,South,180,5.0,10.0,0,-99.99,,,0.00,,2013-04-27 17:42:00,
2013-04-27 13:53:00,58.0,-99.9,30.27,South,180,5.0,10.0,0,-99.99,,,0.00,,2013-04-27 17:53:00,
2013-04-27 14:02:00,58.0,-99.9,30.27,South,180,5.0,10.0,0,-99.99,,,0.00,,2013-04-27 18:02:00,
2013-04-27 14:42:00,61.0,-99.9,30.25,NNW,337,3.0,10.0,0,-99.99,,,0.00,,2013-04-27 18:42:00,
2013-04-27 14:52:00,61.0,-99.9,30.25,NNW,337,3.0,10.0,0,-99.99,,,0.00,,2013-04-27 18:52:00,
2013-04-27 15:02:00,61.0,-99.9,30.25,NNW,337,3.0,10.0,0,-99.99,,,0.00,,2013-04-27 19:02:00,
2013-04-27 15:42:00,59.0,-99.9,30.23,WNW,292,6.0,20.0,0,-99.99,,,0.00,,2013-04-27 19:42:00,
2013-04-27 15:53:00,59.0,-99.9,30.23,WNW,292,6.0,20.0,0,-99.99,,,0.00,,2013-04-27 19:53:00,
2013-04-27 16:02:00,59.0,-99.9,30.23,WNW,292,6.0,20.0,0,-99.99,,,0.00,,2013-04-27 20:02:00,
2013-04-27 16:42:00,61.0,-99.9,30.21,NNW,337,3.0,10.0,0,-99.99,,,0.00,,2013-04-27 20:42:00,
2013-04-27 16:52:00,61.0,-99.9,30.21,NNW,337,3.0,10.0,0,-99.99,,,0.00,,2013-04-27 20:52:00,
2013-04-27 17:02:00,61.0,-99.9,30.21,NNW,337,3.0,10.0,0,-99.99,,,0.00,,2013-04-27 21:02:00,
2013-04-27 17:03:00,62.0,-99.9,30.20,East,90,4.0,10.0,0,-99.99,,,0.00,,2013-04-27 21:03:00,
2013-04-27 17:43:00,62.0,-99.9,30.20,East,90,4.0,10.0,0,-99.99,,,0.00,,2013-04-27 21:43:00,
2013-04-27 17:53:00,62.0,-99.9,30.20,East,90,4.0,10.0,0,-99.99,,,0.00,,2013-04-27 21:53:00,
2013-04-27 18:03:00,61.0,-99.9,30.19,ESE,112,0.0,9.0,0,-99.99,,,0.00,,2013-04-27 22:03:00,
2013-04-27 18:42:00,61.0,-99.9,30.19,ESE,112,0.0,9.0,0,-99.99,,,0.00,,2013-04-27 22:42:00,
2013-04-27 18:53:00,61.0,-99.9,30.19,ESE,112,0.0,9.0,0,-99.99,,,0.00,,2013-04-27 22:53:00,
2013-04-27 19:43:00,60.0,-99.9,30.20,NNE,22,0.0,6.0,0,-99.99,,,0.00,,2013-04-27 23:43:00,
2013-04-27 19:53:00,60.0,-99.9,30.20,NNE,22,0.0,6.0,0,-99.99,,,0.00,,2013-04-27 23:53:00,
2013-04-27 20:02:00,60.0,-99.9,30.20,NNE,22,0.0,6.0,0,-99.99,,,0.00,,2013-04-28 00:02:00,
2013-04-27 21:42:00,41.0,-99.9,30.23,WSW,247,3.0,6.0,0,-99.99,,,0.00,,2013-04-28 01:42:00,
2013-04-27 21:52:00,41.0,-99.9,30.23,WSW,247,3.0,6.0,0,-99.99,,,0.00,,2013-04-28 01:52:00,
2013-04-27 22:02:00,41.0,-99.9,30.23,WSW,247,3.0,6.0,0,-99.99,,,0.00,,2013-04-28 02:02:00,
2013-04-27 22:42:00,37.0,-99.9,30.25,SSW,202,3.0,5.0,0,-99.99,,,0.00,,2013-04-28 02:42:00,
2013-04-27 22:52:00,37.0,-99.9,30.25,SSW,202,3.0,5.0,0,-99.99,,,0.00,,2013-04-28 02:52:00,
2013-04-27 23:02:00,37.0,-99.9,30.25,SSW,202,3.0,5.0,0,-99.99,,,0.00,,2013-04-28 03:02:00,
2013-04-27 23:03:00,35.0,-99.9,30.26,SW,225,4.0,6.0,0,-99.99,,,0.00,,2013-04-28 03:03:00,
2013-04-27 23:43:00,35.0,-99.9,30.26,SW,225,4.0,6.0,0,-99.99,,,0.00,,2013-04-28 03:43:00,
2013-04-27 23:53:00,35.0,-99.9,30.26,SW,225,4.0,6.0,0,-99.99,,,0.00,,2013-04-28 03:53:00,